Las Vegas, Nevada
Traffic Map
Current Weather Conditions
Las Vegas, Nevada
Clear
Clear
33°
Feels Like: 33°
Wind Chill: 33° Ceiling: Unl
Heat Index: 33° Visibility: 10mi
Dew Point: Wind: 6mph
Humidity: 12% Direction: 240° (WSW)
Pressure: 29.91in Gusts: 0mph
Raw Report DataKLAS 300456Z 24005KT 10SM CLR 33/01 A2991 RMK AO2 SLP097 T03330006
Traffic Incident Summary
Active as of:
Severity:
Category:
InformationThere was an issue retrieving the traffic information for this location. Please try a different location or try again shortly.
Advertisements
Track Severe Weather on mobile